createdAt,value
2023-04-16T00:00:39.604Z,7.00
2023-04-16T00:03:06.504Z,7.00
2023-04-16T00:05:34.974Z,7.00
2023-04-16T00:08:01.886Z,7.00
2023-04-16T00:10:29.664Z,7.00
2023-04-16T00:12:57.494Z,7.00
2023-04-16T00:15:24.181Z,7.00
2023-04-16T00:17:51.226Z,7.00
2023-04-16T00:20:18.058Z,7.00
2023-04-16T00:22:45.329Z,7.00
2023-04-16T00:25:13.424Z,7.00
2023-04-16T00:27:40.092Z,7.00
2023-04-16T00:30:07.659Z,7.00
2023-04-16T00:32:34.365Z,7.00
2023-04-16T00:35:02.830Z,7.00
2023-04-16T00:37:30.414Z,7.00
2023-04-16T00:39:58.817Z,7.00
2023-04-16T00:42:25.636Z,7.00
2023-04-16T00:44:52.576Z,6.90
2023-04-16T00:47:19.831Z,7.00
2023-04-16T00:49:46.830Z,7.00
2023-04-16T00:52:14.902Z,6.90
2023-04-16T00:54:41.686Z,6.90
2023-04-16T00:57:09.052Z,6.90
2023-04-16T00:59:36.101Z,6.90
2023-04-16T01:02:05.362Z,6.90
2023-04-16T01:04:33.912Z,6.90
2023-04-16T01:07:00.560Z,6.90
2023-04-16T01:09:27.429Z,6.90
2023-04-16T01:11:54.076Z,6.90
2023-04-16T01:14:20.765Z,6.80
2023-04-16T01:16:47.573Z,6.80
2023-04-16T01:19:14.527Z,6.80
2023-04-16T01:21:41.198Z,6.80
2023-04-16T01:24:08.051Z,6.80
2023-04-16T01:26:34.720Z,6.80
2023-04-16T01:29:01.588Z,6.80
2023-04-16T01:31:28.324Z,6.80
2023-04-16T01:33:55.179Z,6.80
2023-04-16T01:36:21.890Z,6.70
2023-04-16T01:38:48.839Z,6.80
2023-04-16T01:41:15.786Z,6.70
2023-04-16T01:43:43.529Z,6.70
2023-04-16T01:46:13.048Z,6.70
2023-04-16T01:48:39.693Z,6.70
2023-04-16T01:51:06.528Z,6.70
2023-04-16T01:53:34.715Z,6.70
2023-04-16T01:56:03.399Z,6.70
2023-04-16T01:58:30.753Z,6.70
2023-04-16T02:00:57.512Z,6.70
2023-04-16T02:03:24.961Z,6.70
2023-04-16T02:05:51.811Z,6.60
2023-04-16T02:08:18.726Z,6.60
2023-04-16T02:10:46.402Z,6.60
2023-04-16T02:13:14.108Z,6.60
2023-04-16T02:15:46.511Z,6.60
2023-04-16T02:18:13.423Z,6.60
2023-04-16T02:20:44.932Z,6.60
2023-04-16T02:23:15.617Z,6.60
2023-04-16T02:25:43.112Z,6.50
2023-04-16T02:28:10.466Z,6.60
2023-04-16T02:30:37.936Z,6.60
2023-04-16T02:33:07.251Z,6.50
2023-04-16T02:35:35.350Z,6.50
2023-04-16T02:38:02.765Z,6.50
2023-04-16T02:40:30.059Z,6.50
2023-04-16T02:42:57.293Z,6.50
2023-04-16T02:45:24.518Z,6.50
2023-04-16T02:47:51.281Z,6.40
2023-04-16T02:50:18.278Z,6.50
2023-04-16T02:52:45.043Z,6.50
2023-04-16T02:55:11.839Z,6.50
2023-04-16T02:57:38.722Z,6.50
2023-04-16T03:00:05.801Z,6.50
2023-04-16T03:07:56.765Z,6.40
2023-04-16T03:10:24.151Z,6.40
2023-04-16T03:12:51.979Z,6.40
2023-04-16T03:15:18.722Z,6.40
2023-04-16T03:17:45.375Z,6.40
2023-04-16T03:20:12.411Z,6.40
2023-04-16T03:22:39.705Z,6.40
2023-04-16T03:25:07.310Z,6.40
2023-04-16T03:27:34.332Z,6.40
2023-04-16T03:30:01.605Z,6.40
2023-04-16T03:32:28.541Z,6.40
2023-04-16T03:34:55.292Z,6.40
2023-04-16T03:37:22.320Z,6.40
2023-04-16T03:39:49.575Z,6.40
2023-04-16T03:42:18.238Z,6.40
2023-04-16T03:44:46.919Z,6.50
2023-04-16T03:47:14.749Z,6.40
2023-04-16T03:49:41.620Z,6.40
2023-04-16T03:52:08.900Z,6.40
2023-04-16T03:54:36.776Z,6.40
2023-04-16T03:57:03.498Z,6.40
2023-04-16T03:59:30.351Z,6.40
2023-04-16T04:01:57.470Z,6.40
2023-04-16T04:07:05.791Z,6.40
2023-04-16T04:09:33.959Z,6.30
2023-04-16T04:12:01.689Z,6.40
2023-04-16T04:14:28.465Z,6.30
2023-04-16T04:16:55.666Z,6.40
2023-04-16T04:19:23.011Z,6.30
2023-04-16T04:21:52.559Z,6.40
2023-04-16T04:24:19.934Z,6.40
2023-04-16T04:26:47.102Z,6.40
2023-04-16T04:29:14.976Z,6.40
2023-04-16T04:31:41.841Z,6.40
2023-04-16T04:34:08.761Z,6.40
2023-04-16T04:36:35.661Z,6.40
2023-04-16T04:39:03.940Z,6.40
2023-04-16T04:41:31.841Z,6.40
2023-04-16T04:43:59.037Z,6.40
2023-04-16T04:46:25.923Z,6.40
2023-04-16T04:48:53.018Z,6.40
2023-04-16T04:51:21.977Z,6.40
2023-04-16T04:53:49.081Z,6.40
2023-04-16T04:58:51.471Z,6.50
2023-04-16T05:01:18.233Z,6.50
2023-04-16T05:03:45.069Z,6.50
2023-04-16T05:06:12.099Z,6.50
2023-04-16T05:08:38.724Z,6.60
2023-04-16T05:11:05.597Z,6.60
2023-04-16T05:13:32.281Z,6.60
2023-04-16T05:15:59.729Z,6.60
2023-04-16T05:18:26.735Z,6.60
2023-04-16T05:20:53.855Z,6.70
2023-04-16T05:23:20.599Z,6.70
2023-04-16T05:25:47.189Z,6.70
2023-04-16T05:28:13.948Z,6.80
2023-04-16T05:33:16.021Z,6.80
2023-04-16T05:35:43.261Z,6.90
2023-04-16T05:38:10.536Z,6.90
2023-04-16T05:40:37.231Z,7.00
2023-04-16T05:43:04.360Z,7.00
2023-04-16T05:45:33.405Z,7.00
2023-04-16T05:48:00.512Z,7.00
2023-04-16T05:50:27.347Z,7.00
2023-04-16T05:52:53.956Z,7.00
2023-04-16T05:55:20.900Z,7.10
2023-04-16T05:57:47.520Z,7.10
2023-04-16T06:00:14.253Z,7.10
2023-04-16T06:02:41.446Z,7.10
2023-04-16T06:05:08.411Z,7.10
2023-04-16T06:07:35.353Z,7.20
2023-04-16T06:10:02.336Z,7.20
2023-04-16T06:12:29.089Z,7.30
2023-04-16T06:14:56.445Z,7.30
2023-04-16T06:17:23.485Z,7.30
2023-04-16T06:19:52.767Z,7.40
2023-04-16T06:22:19.765Z,7.50
2023-04-16T06:24:46.439Z,7.60
2023-04-16T06:29:54.637Z,7.70
2023-04-16T06:32:21.673Z,7.80
2023-04-16T06:34:49.009Z,7.80
2023-04-16T06:37:16.229Z,7.80
2023-04-16T06:42:25.880Z,7.80
2023-04-16T06:47:34.808Z,8.00
2023-04-16T06:50:01.706Z,8.00
2023-04-16T06:52:31.399Z,8.10
2023-04-16T06:54:58.723Z,8.20
2023-04-16T06:57:25.406Z,8.30
2023-04-16T06:59:52.347Z,8.30
2023-04-16T07:02:19.267Z,8.40
2023-04-16T07:04:46.283Z,8.50
2023-04-16T07:07:20.017Z,8.60
2023-04-16T07:09:46.953Z,8.60
2023-04-16T07:12:13.684Z,8.70
2023-04-16T07:14:41.133Z,8.80
2023-04-16T07:17:09.792Z,8.80
2023-04-16T07:19:37.140Z,8.80
2023-04-16T07:22:06.225Z,8.90
2023-04-16T07:24:33.092Z,9.00
2023-04-16T07:26:59.772Z,9.00
2023-04-16T07:29:29.049Z,9.00
2023-04-16T07:31:55.847Z,9.00
2023-04-16T07:34:22.926Z,9.00
2023-04-16T07:36:49.619Z,9.10
2023-04-16T07:39:16.464Z,9.10
2023-04-16T07:41:43.331Z,9.20
2023-04-16T07:44:09.988Z,9.20
2023-04-16T07:46:46.273Z,9.20
2023-04-16T07:49:13.461Z,9.20
2023-04-16T07:51:40.963Z,9.30
2023-04-16T07:54:10.957Z,9.30
2023-04-16T07:56:37.914Z,9.40
2023-04-16T07:59:18.501Z,9.50
2023-04-16T08:01:49.823Z,9.60
2023-04-16T08:04:23.513Z,9.60
2023-04-16T08:06:51.841Z,9.70
2023-04-16T08:09:22.660Z,9.70
2023-04-16T08:11:58.373Z,9.80
2023-04-16T08:14:25.422Z,9.70
2023-04-16T08:17:00.277Z,9.80
2023-04-16T08:19:26.957Z,9.70
2023-04-16T08:21:53.702Z,9.70
2023-04-16T08:24:20.496Z,9.70
2023-04-16T08:26:47.229Z,9.70
2023-04-16T08:31:56.591Z,9.80
2023-04-16T08:34:26.659Z,9.80
2023-04-16T08:36:53.437Z,9.90
2023-04-16T08:39:20.049Z,9.90
2023-04-16T08:41:47.283Z,9.90
2023-04-16T08:44:18.472Z,10.00
2023-04-16T08:46:46.630Z,10.00
2023-04-16T08:49:16.884Z,10.00
2023-04-16T08:51:45.335Z,10.00
2023-04-16T08:54:19.859Z,9.90
2023-04-16T08:56:48.508Z,9.90
2023-04-16T08:59:18.627Z,9.90
2023-04-16T09:01:46.574Z,9.90
2023-04-16T09:04:14.482Z,9.90
2023-04-16T09:06:42.197Z,10.00
2023-04-16T09:09:11.261Z,9.90
2023-04-16T09:11:39.828Z,9.90
2023-04-16T09:14:12.346Z,10.00
2023-04-16T09:16:39.509Z,10.00
2023-04-16T09:19:06.414Z,10.10
2023-04-16T09:21:33.180Z,10.20
2023-04-16T09:24:00.098Z,10.20
2023-04-16T09:26:29.747Z,10.30
2023-04-16T09:28:59.063Z,10.30
2023-04-16T09:31:28.690Z,10.40
2023-04-16T09:36:42.952Z,10.60
2023-04-16T09:39:18.264Z,10.70
2023-04-16T09:41:47.141Z,10.80
2023-04-16T09:44:13.948Z,11.00
2023-04-16T09:46:41.396Z,11.20
2023-04-16T09:49:13.908Z,11.30
2023-04-16T09:51:43.970Z,11.60
2023-04-16T09:54:10.758Z,11.80
2023-04-16T09:56:41.371Z,11.90
2023-04-16T09:59:09.069Z,11.90
2023-04-16T10:01:36.716Z,12.00
2023-04-16T10:04:07.079Z,12.00
2023-04-16T10:06:34.400Z,11.90
2023-04-16T10:09:01.117Z,12.00
2023-04-16T10:11:28.177Z,12.10
2023-04-16T10:13:54.845Z,12.10
2023-04-16T10:16:22.754Z,12.30
2023-04-16T10:18:50.875Z,12.50
2023-04-16T10:21:17.779Z,12.70
2023-04-16T10:23:44.870Z,12.90
2023-04-16T10:26:11.674Z,13.00
2023-04-16T10:28:39.026Z,13.20
2023-04-16T10:31:07.442Z,13.30
2023-04-16T10:33:41.230Z,13.40
2023-04-16T10:36:08.828Z,13.50
2023-04-16T10:38:38.116Z,13.60
2023-04-16T10:46:33.631Z,13.60
2023-04-16T10:49:01.374Z,13.60
2023-04-16T10:51:30.061Z,13.60
2023-04-16T10:54:03.326Z,13.60
2023-04-16T10:56:32.435Z,13.60
2023-04-16T10:58:59.472Z,13.50
2023-04-16T11:01:42.536Z,13.50
2023-04-16T11:04:21.533Z,13.50
2023-04-16T11:07:07.413Z,13.40
2023-04-16T11:09:53.396Z,13.50
2023-04-16T11:12:20.290Z,13.40
2023-04-16T11:14:49.287Z,13.30
2023-04-16T11:17:16.214Z,13.30
2023-04-16T11:19:43.408Z,13.30
2023-04-16T11:22:12.257Z,13.30
2023-04-16T11:24:40.918Z,13.40
2023-04-16T11:27:07.943Z,13.30
2023-04-16T11:29:34.809Z,13.40
2023-04-16T11:32:01.462Z,13.40
2023-04-16T11:34:28.333Z,13.50
2023-04-16T11:36:54.933Z,13.60
2023-04-16T11:39:22.228Z,13.50
2023-04-16T11:41:52.332Z,13.60
2023-04-16T11:44:19.660Z,13.50
2023-04-16T11:46:46.378Z,13.60
2023-04-16T11:49:13.245Z,13.70
2023-04-16T11:51:41.387Z,13.80
2023-04-16T12:02:11.529Z,14.00
2023-04-16T12:10:08.532Z,14.20
2023-04-16T12:12:38.645Z,14.20
2023-04-16T12:15:06.122Z,14.20
2023-04-16T12:17:33.550Z,14.10
2023-04-16T12:20:09.269Z,14.00
2023-04-16T12:22:38.597Z,13.90
2023-04-16T12:25:11.185Z,13.90
2023-04-16T12:27:41.542Z,13.80
2023-04-16T12:35:32.472Z,13.50
2023-04-16T12:40:36.534Z,13.50
2023-04-16T12:43:05.669Z,13.40
2023-04-16T12:45:32.416Z,13.40
2023-04-16T12:48:00.256Z,13.50
2023-04-16T12:50:28.529Z,13.60
2023-04-16T12:52:55.825Z,13.70
2023-04-16T12:55:22.461Z,13.80
2023-04-16T12:57:50.239Z,14.00
2023-04-16T13:00:17.007Z,14.00
2023-04-16T13:02:43.957Z,14.10
2023-04-16T13:05:10.854Z,14.20
2023-04-16T13:07:37.543Z,14.30
2023-04-16T13:10:05.533Z,14.30
2023-04-16T13:12:33.328Z,14.40
2023-04-16T13:14:59.985Z,14.40
2023-04-16T13:17:26.663Z,14.50
2023-04-16T13:19:53.325Z,14.60
2023-04-16T13:22:23.307Z,14.70
2023-04-16T13:24:50.061Z,14.60
2023-04-16T13:27:18.899Z,14.80
2023-04-16T13:29:51.630Z,14.80
2023-04-16T13:32:21.310Z,14.90
2023-04-16T13:34:49.250Z,14.80
2023-04-16T13:37:17.801Z,15.00
2023-04-16T13:39:45.136Z,15.00
2023-04-16T13:42:14.454Z,15.10
2023-04-16T13:44:41.444Z,15.20
2023-04-16T13:47:08.654Z,15.30
2023-04-16T13:49:36.408Z,15.30
2023-04-16T13:52:03.262Z,15.10
2023-04-16T13:54:31.515Z,15.20
2023-04-16T13:56:58.206Z,15.20
2023-04-16T13:59:26.748Z,15.20
2023-04-16T14:01:53.449Z,15.10
2023-04-16T14:04:22.300Z,15.10
2023-04-16T14:06:49.576Z,15.10
2023-04-16T14:09:16.299Z,15.00
2023-04-16T14:11:43.378Z,15.00
2023-04-16T14:14:10.200Z,14.90
2023-04-16T14:16:37.174Z,15.00
2023-04-16T14:19:03.830Z,15.00
2023-04-16T14:21:31.271Z,15.20
2023-04-16T14:23:58.024Z,15.20
2023-04-16T14:26:24.695Z,15.20
2023-04-16T14:28:51.405Z,15.30
2023-04-16T14:31:18.862Z,15.30
2023-04-16T14:33:46.155Z,15.30
2023-04-16T14:36:14.026Z,15.20
2023-04-16T14:38:45.519Z,15.20
2023-04-16T14:41:12.741Z,15.20
2023-04-16T14:43:41.660Z,15.20
2023-04-16T14:46:10.713Z,15.20
2023-04-16T14:48:37.936Z,15.30
2023-04-16T14:51:04.605Z,15.20
2023-04-16T14:53:31.525Z,15.10
2023-04-16T14:56:00.293Z,15.00
2023-04-16T14:58:27.040Z,14.90
2023-04-16T15:00:54.129Z,14.80
2023-04-16T15:03:25.708Z,14.80
2023-04-16T15:05:55.773Z,14.80
2023-04-16T15:08:23.946Z,14.70
2023-04-16T15:10:54.605Z,14.60
2023-04-16T15:13:21.260Z,14.60
2023-04-16T15:15:48.231Z,14.60
2023-04-16T15:18:16.720Z,14.60
2023-04-16T15:20:43.574Z,14.50
2023-04-16T15:23:10.246Z,14.40
2023-04-16T15:25:36.904Z,14.30
2023-04-16T15:28:03.770Z,14.30
2023-04-16T15:30:30.869Z,14.30
2023-04-16T15:33:04.847Z,14.40
2023-04-16T15:35:31.692Z,14.50
2023-04-16T15:38:03.835Z,14.70
2023-04-16T15:40:31.261Z,14.80
2023-04-16T15:42:57.904Z,14.80
2023-04-16T15:45:24.759Z,14.80
2023-04-16T15:47:52.930Z,14.60
2023-04-16T15:50:21.026Z,14.50
2023-04-16T15:52:47.680Z,14.40
2023-04-16T15:57:59.358Z,14.30
2023-04-16T16:00:27.768Z,14.20
2023-04-16T16:02:58.088Z,14.10
2023-04-16T16:05:24.957Z,14.10
2023-04-16T16:07:53.120Z,14.00
2023-04-16T16:10:21.295Z,14.00
2023-04-16T16:12:57.707Z,14.00
2023-04-16T16:15:24.999Z,14.00
2023-04-16T16:17:57.070Z,14.00
2023-04-16T16:20:24.871Z,14.00
2023-04-16T16:22:53.576Z,13.90
2023-04-16T16:25:20.394Z,13.90
2023-04-16T16:27:47.417Z,13.80
2023-04-16T16:32:56.481Z,13.70
2023-04-16T16:35:23.520Z,13.70
2023-04-16T16:48:34.820Z,13.60
2023-04-16T16:51:01.738Z,13.60
2023-04-16T17:20:23.152Z,12.60
2023-04-16T17:25:32.148Z,12.30
2023-04-16T17:30:35.308Z,12.20
2023-04-16T17:55:21.301Z,11.30
2023-04-16T17:57:47.901Z,11.30
2023-04-16T18:00:14.699Z,11.20
2023-04-16T18:02:43.477Z,11.00
2023-04-16T18:05:15.637Z,11.00
2023-04-16T18:07:44.019Z,10.90
2023-04-16T18:10:10.828Z,10.80
2023-04-16T18:12:37.629Z,10.80
2023-04-16T18:15:06.122Z,10.70
2023-04-16T18:17:33.795Z,10.70
2023-04-16T18:20:02.453Z,10.60
2023-04-16T18:22:30.435Z,10.60
2023-04-16T18:27:33.860Z,10.50
2023-04-16T18:30:00.546Z,10.40
2023-04-16T18:32:31.162Z,10.30
2023-04-16T18:35:00.596Z,10.30
2023-04-16T18:56:16.307Z,9.80
2023-04-16T18:58:44.021Z,9.70
2023-04-16T19:01:13.961Z,9.60
2023-04-16T19:03:40.929Z,9.60
2023-04-16T19:06:07.880Z,9.50
2023-04-16T19:08:34.725Z,9.40
2023-04-16T19:11:01.357Z,9.40
2023-04-16T19:16:11.745Z,9.30
2023-04-16T19:18:38.882Z,9.20
2023-04-16T19:21:06.876Z,9.20
2023-04-16T19:23:33.663Z,9.10
2023-04-16T19:47:31.126Z,8.40
2023-04-16T20:03:28.216Z,7.90
2023-04-16T20:05:55.468Z,7.80
2023-04-16T20:08:23.388Z,7.80
2023-04-16T20:10:52.671Z,7.60
2023-04-16T20:13:19.265Z,7.60
2023-04-16T20:15:47.169Z,7.50
2023-04-16T20:18:13.782Z,7.50
2023-04-16T20:28:41.166Z,7.20
2023-04-16T20:31:11.589Z,7.10
2023-04-16T20:33:41.049Z,7.10
2023-04-16T20:36:07.744Z,7.10
2023-04-16T20:38:35.557Z,7.10
2023-04-16T20:41:14.610Z,7.00
2023-04-16T20:43:42.243Z,7.10
2023-04-16T20:46:09.640Z,7.00
2023-04-16T20:48:36.607Z,7.10
2023-04-16T20:51:03.902Z,7.10
2023-04-16T20:53:34.626Z,7.10
2023-04-16T20:56:02.998Z,7.00
2023-04-16T20:58:29.704Z,7.00
2023-04-16T21:00:57.049Z,7.00
2023-04-16T21:03:25.191Z,6.90
2023-04-16T21:05:54.297Z,6.90
2023-04-16T21:08:21.594Z,6.80
2023-04-16T21:10:48.499Z,6.70
2023-04-16T21:13:18.192Z,6.70
2023-04-16T21:15:45.738Z,6.50
2023-04-16T21:20:59.015Z,6.30
2023-04-16T21:23:26.245Z,6.30
2023-04-16T21:41:59.712Z,5.90
2023-04-16T21:52:26.622Z,5.80
2023-04-16T21:54:53.255Z,5.80
2023-04-16T22:19:14.289Z,5.90
2023-04-16T22:21:41.267Z,6.00
2023-04-16T22:26:50.586Z,6.00
2023-04-16T22:42:50.713Z,6.10
2023-04-16T22:47:53.150Z,6.10
2023-04-16T23:03:46.702Z,6.30
2023-04-16T23:06:13.793Z,6.30
2023-04-16T23:08:40.998Z,6.30
2023-04-16T23:13:46.807Z,6.40
2023-04-16T23:16:14.956Z,6.40
2023-04-16T23:18:41.808Z,6.40
2023-04-16T23:23:49.383Z,6.40
2023-04-16T23:26:16.398Z,6.40
2023-04-16T23:31:25.851Z,6.40
2023-04-16T23:33:52.508Z,6.30
2023-04-16T23:36:19.568Z,6.30
2023-04-16T23:55:09.275Z,6.40
